sensor_id;sensor_type;location;lat;lon;timestamp;P1;durP1;ratioP1;P2;durP2;ratioP2
3573;SDS011;1801;51.050;6.246;2023-11-21T00:00:54;47.17;;;19.53;;
3573;SDS011;1801;51.050;6.246;2023-11-21T00:03:19;39.83;;;17.30;;
3573;SDS011;1801;51.050;6.246;2023-11-21T00:05:44;45.83;;;18.00;;
3573;SDS011;1801;51.050;6.246;2023-11-21T00:08:09;37.83;;;17.27;;
3573;SDS011;1801;51.050;6.246;2023-11-21T00:10:35;43.80;;;16.67;;
3573;SDS011;1801;51.050;6.246;2023-11-21T00:13:03;40.30;;;16.98;;
3573;SDS011;1801;51.050;6.246;2023-11-21T00:15:28;59.57;;;18.40;;
3573;SDS011;1801;51.050;6.246;2023-11-21T00:17:53;48.23;;;19.07;;
3573;SDS011;1801;51.050;6.246;2023-11-21T00:20:18;68.00;;;21.60;;
3573;SDS011;1801;51.050;6.246;2023-11-21T00:22:43;108.80;;;26.77;;
3573;SDS011;1801;51.050;6.246;2023-11-21T00:25:09;127.20;;;27.40;;
3573;SDS011;1801;51.050;6.246;2023-11-21T00:27:34;130.53;;;29.73;;
3573;SDS011;1801;51.050;6.246;2023-11-21T00:30:00;109.40;;;28.97;;
3573;SDS011;1801;51.050;6.246;2023-11-21T00:32:25;101.17;;;29.30;;
3573;SDS011;1801;51.050;6.246;2023-11-21T00:34:50;97.90;;;29.17;;
3573;SDS011;1801;51.050;6.246;2023-11-21T00:37:15;114.80;;;31.60;;
3573;SDS011;1801;51.050;6.246;2023-11-21T00:39:40;107.43;;;31.07;;
3573;SDS011;1801;51.050;6.246;2023-11-21T00:42:06;86.90;;;27.70;;
3573;SDS011;1801;51.050;6.246;2023-11-21T00:44:32;88.80;;;25.33;;
3573;SDS011;1801;51.050;6.246;2023-11-21T00:46:59;62.97;;;21.50;;
3573;SDS011;1801;51.050;6.246;2023-11-21T00:49:24;51.60;;;22.27;;
3573;SDS011;1801;51.050;6.246;2023-11-21T00:51:49;69.33;;;20.00;;
3573;SDS011;1801;51.050;6.246;2023-11-21T00:54:14;63.23;;;21.53;;
3573;SDS011;1801;51.050;6.246;2023-11-21T00:56:42;41.35;;;18.98;;
3573;SDS011;1801;51.050;6.246;2023-11-21T00:59:07;56.33;;;20.00;;
3573;SDS011;1801;51.050;6.246;2023-11-21T01:01:32;74.67;;;21.50;;
3573;SDS011;1801;51.050;6.246;2023-11-21T01:03:57;62.77;;;24.80;;
3573;SDS011;1801;51.050;6.246;2023-11-21T01:06:22;84.23;;;24.87;;
3573;SDS011;1801;51.050;6.246;2023-11-21T01:08:47;58.77;;;22.90;;
3573;SDS011;1801;51.050;6.246;2023-11-21T01:11:13;59.53;;;21.10;;
3573;SDS011;1801;51.050;6.246;2023-11-21T01:13:38;53.83;;;21.67;;
3573;SDS011;1801;51.050;6.246;2023-11-21T01:16:04;57.63;;;21.80;;
3573;SDS011;1801;51.050;6.246;2023-11-21T01:18:29;63.23;;;21.67;;
3573;SDS011;1801;51.050;6.246;2023-11-21T01:20:54;61.30;;;22.00;;
3573;SDS011;1801;51.050;6.246;2023-11-21T01:23:20;65.33;;;21.53;;
3573;SDS011;1801;51.050;6.246;2023-11-21T01:25:45;69.67;;;24.77;;
3573;SDS011;1801;51.050;6.246;2023-11-21T01:28:10;69.87;;;24.90;;
3573;SDS011;1801;51.050;6.246;2023-11-21T01:30:35;104.83;;;32.07;;
3573;SDS011;1801;51.050;6.246;2023-11-21T01:33:00;104.13;;;32.90;;
3573;SDS011;1801;51.050;6.246;2023-11-21T01:35:25;108.20;;;31.30;;
3573;SDS011;1801;51.050;6.246;2023-11-21T01:37:51;108.23;;;30.67;;
3573;SDS011;1801;51.050;6.246;2023-11-21T01:40:16;103.33;;;32.33;;
3573;SDS011;1801;51.050;6.246;2023-11-21T01:42:41;101.63;;;30.40;;
3573;SDS011;1801;51.050;6.246;2023-11-21T01:45:08;92.88;;;30.83;;
3573;SDS011;1801;51.050;6.246;2023-11-21T01:47:34;88.47;;;29.65;;
3573;SDS011;1801;51.050;6.246;2023-11-21T01:50:01;103.25;;;28.48;;
3573;SDS011;1801;51.050;6.246;2023-11-21T01:52:26;113.20;;;29.60;;
3573;SDS011;1801;51.050;6.246;2023-11-21T01:54:52;101.97;;;32.13;;
3573;SDS011;1801;51.050;6.246;2023-11-21T01:57:18;121.23;;;36.60;;
3573;SDS011;1801;51.050;6.246;2023-11-21T01:59:43;106.40;;;28.67;;
3573;SDS011;1801;51.050;6.246;2023-11-21T02:02:09;126.33;;;31.30;;
3573;SDS011;1801;51.050;6.246;2023-11-21T02:04:35;121.47;;;32.03;;
3573;SDS011;1801;51.050;6.246;2023-11-21T02:07:01;128.38;;;32.03;;
3573;SDS011;1801;51.050;6.246;2023-11-21T02:09:27;118.17;;;30.03;;
3573;SDS011;1801;51.050;6.246;2023-11-21T02:11:53;140.67;;;32.50;;
3573;SDS011;1801;51.050;6.246;2023-11-21T02:14:19;109.50;;;30.20;;
3573;SDS011;1801;51.050;6.246;2023-11-21T02:16:45;138.57;;;34.40;;
3573;SDS011;1801;51.050;6.246;2023-11-21T02:19:12;128.57;;;34.17;;
3573;SDS011;1801;51.050;6.246;2023-11-21T02:21:40;130.60;;;33.47;;
3573;SDS011;1801;51.050;6.246;2023-11-21T02:24:07;166.40;;;33.97;;
3573;SDS011;1801;51.050;6.246;2023-11-21T02:26:32;150.40;;;35.57;;
3573;SDS011;1801;51.050;6.246;2023-11-21T02:28:57;152.80;;;36.23;;
3573;SDS011;1801;51.050;6.246;2023-11-21T02:31:23;186.37;;;43.33;;
3573;SDS011;1801;51.050;6.246;2023-11-21T02:33:48;151.43;;;33.27;;
3573;SDS011;1801;51.050;6.246;2023-11-21T02:36:13;154.87;;;38.20;;
3573;SDS011;1801;51.050;6.246;2023-11-21T02:38:39;194.70;;;39.07;;
3573;SDS011;1801;51.050;6.246;2023-11-21T02:41:04;150.80;;;36.37;;
3573;SDS011;1801;51.050;6.246;2023-11-21T02:43:29;144.87;;;36.20;;
3573;SDS011;1801;51.050;6.246;2023-11-21T02:45:54;138.67;;;35.90;;
3573;SDS011;1801;51.050;6.246;2023-11-21T02:48:20;166.60;;;36.20;;
3573;SDS011;1801;51.050;6.246;2023-11-21T02:50:45;167.40;;;40.27;;
3573;SDS011;1801;51.050;6.246;2023-11-21T02:53:10;154.37;;;38.57;;
3573;SDS011;1801;51.050;6.246;2023-11-21T02:55:36;126.50;;;36.73;;
3573;SDS011;1801;51.050;6.246;2023-11-21T02:58:01;118.67;;;33.87;;
3573;SDS011;1801;51.050;6.246;2023-11-21T03:00:26;108.90;;;32.60;;
3573;SDS011;1801;51.050;6.246;2023-11-21T03:02:52;124.57;;;33.50;;
3573;SDS011;1801;51.050;6.246;2023-11-21T03:05:18;115.78;;;32.72;;
3573;SDS011;1801;51.050;6.246;2023-11-21T03:07:43;116.80;;;31.03;;
3573;SDS011;1801;51.050;6.246;2023-11-21T03:10:08;111.67;;;30.70;;
3573;SDS011;1801;51.050;6.246;2023-11-21T03:12:34;94.13;;;28.67;;
3573;SDS011;1801;51.050;6.246;2023-11-21T03:14:59;100.70;;;30.30;;
3573;SDS011;1801;51.050;6.246;2023-11-21T03:17:24;87.97;;;31.00;;
3573;SDS011;1801;51.050;6.246;2023-11-21T03:19:49;101.97;;;29.37;;
3573;SDS011;1801;51.050;6.246;2023-11-21T03:22:15;100.07;;;31.07;;
3573;SDS011;1801;51.050;6.246;2023-11-21T03:24:40;89.30;;;31.77;;
3573;SDS011;1801;51.050;6.246;2023-11-21T03:27:05;237.50;;;49.70;;
3573;SDS011;1801;51.050;6.246;2023-11-21T03:29:30;107.80;;;33.30;;
3573;SDS011;1801;51.050;6.246;2023-11-21T03:31:55;91.33;;;32.20;;
3573;SDS011;1801;51.050;6.246;2023-11-21T03:34:24;92.70;;;31.47;;
3573;SDS011;1801;51.050;6.246;2023-11-21T03:36:51;105.40;;;38.75;;
3573;SDS011;1801;51.050;6.246;2023-11-21T03:39:16;97.33;;;31.90;;
3573;SDS011;1801;51.050;6.246;2023-11-21T03:41:41;97.87;;;31.60;;
3573;SDS011;1801;51.050;6.246;2023-11-21T03:44:06;102.30;;;30.60;;
3573;SDS011;1801;51.050;6.246;2023-11-21T03:46:31;84.53;;;31.03;;
3573;SDS011;1801;51.050;6.246;2023-11-21T03:48:57;95.30;;;30.70;;
3573;SDS011;1801;51.050;6.246;2023-11-21T03:51:22;92.03;;;30.27;;
3573;SDS011;1801;51.050;6.246;2023-11-21T03:53:47;82.63;;;29.47;;
3573;SDS011;1801;51.050;6.246;2023-11-21T03:56:13;96.93;;;31.20;;
3573;SDS011;1801;51.050;6.246;2023-11-21T03:58:38;103.70;;;33.45;;
3573;SDS011;1801;51.050;6.246;2023-11-21T04:01:03;93.53;;;29.40;;
3573;SDS011;1801;51.050;6.246;2023-11-21T04:03:29;88.20;;;30.30;;
3573;SDS011;1801;51.050;6.246;2023-11-21T04:05:54;91.10;;;28.57;;
3573;SDS011;1801;51.050;6.246;2023-11-21T04:08:20;87.63;;;29.30;;
3573;SDS011;1801;51.050;6.246;2023-11-21T04:10:45;90.20;;;31.00;;
3573;SDS011;1801;51.050;6.246;2023-11-21T04:13:10;88.57;;;31.00;;
3573;SDS011;1801;51.050;6.246;2023-11-21T04:15:35;95.13;;;29.23;;
3573;SDS011;1801;51.050;6.246;2023-11-21T04:18:00;72.93;;;28.40;;
3573;SDS011;1801;51.050;6.246;2023-11-21T04:20:26;83.43;;;32.00;;
3573;SDS011;1801;51.050;6.246;2023-11-21T04:22:52;78.63;;;29.43;;
3573;SDS011;1801;51.050;6.246;2023-11-21T04:25:17;95.00;;;30.80;;
3573;SDS011;1801;51.050;6.246;2023-11-21T04:27:42;78.57;;;26.57;;
3573;SDS011;1801;51.050;6.246;2023-11-21T04:30:09;80.43;;;29.60;;
3573;SDS011;1801;51.050;6.246;2023-11-21T04:32:35;94.82;;;29.05;;
3573;SDS011;1801;51.050;6.246;2023-11-21T04:35:00;76.70;;;27.60;;
3573;SDS011;1801;51.050;6.246;2023-11-21T04:37:25;84.07;;;28.10;;
3573;SDS011;1801;51.050;6.246;2023-11-21T04:39:50;69.97;;;26.60;;
3573;SDS011;1801;51.050;6.246;2023-11-21T04:42:16;94.35;;;30.42;;
3573;SDS011;1801;51.050;6.246;2023-11-21T04:44:42;68.10;;;27.57;;
3573;SDS011;1801;51.050;6.246;2023-11-21T04:47:08;92.05;;;29.30;;
3573;SDS011;1801;51.050;6.246;2023-11-21T04:49:34;71.53;;;27.80;;
3573;SDS011;1801;51.050;6.246;2023-11-21T04:51:59;83.70;;;29.10;;
3573;SDS011;1801;51.050;6.246;2023-11-21T04:54:24;81.93;;;27.60;;
3573;SDS011;1801;51.050;6.246;2023-11-21T04:56:49;74.03;;;27.50;;
3573;SDS011;1801;51.050;6.246;2023-11-21T04:59:15;85.97;;;27.97;;
3573;SDS011;1801;51.050;6.246;2023-11-21T05:01:40;98.10;;;32.83;;
3573;SDS011;1801;51.050;6.246;2023-11-21T05:04:05;98.47;;;29.87;;
3573;SDS011;1801;51.050;6.246;2023-11-21T05:06:31;111.73;;;36.30;;
3573;SDS011;1801;51.050;6.246;2023-11-21T05:08:56;90.53;;;32.60;;
3573;SDS011;1801;51.050;6.246;2023-11-21T05:11:27;94.13;;;30.03;;
3573;SDS011;1801;51.050;6.246;2023-11-21T05:13:53;96.20;;;34.50;;
3573;SDS011;1801;51.050;6.246;2023-11-21T05:16:19;94.60;;;30.87;;
3573;SDS011;1801;51.050;6.246;2023-11-21T05:18:44;83.53;;;27.50;;
3573;SDS011;1801;51.050;6.246;2023-11-21T05:21:10;93.10;;;30.33;;
3573;SDS011;1801;51.050;6.246;2023-11-21T05:23:35;88.27;;;29.03;;
3573;SDS011;1801;51.050;6.246;2023-11-21T05:26:00;70.37;;;30.93;;
3573;SDS011;1801;51.050;6.246;2023-11-21T05:28:25;81.33;;;29.43;;
3573;SDS011;1801;51.050;6.246;2023-11-21T05:30:50;88.77;;;28.57;;
3573;SDS011;1801;51.050;6.246;2023-11-21T05:33:16;76.53;;;30.20;;
3573;SDS011;1801;51.050;6.246;2023-11-21T05:35:41;69.17;;;27.50;;
3573;SDS011;1801;51.050;6.246;2023-11-21T05:38:06;72.17;;;26.10;;
3573;SDS011;1801;51.050;6.246;2023-11-21T05:40:31;57.10;;;23.17;;
3573;SDS011;1801;51.050;6.246;2023-11-21T05:42:57;72.93;;;25.40;;
3573;SDS011;1801;51.050;6.246;2023-11-21T05:45:22;77.80;;;26.40;;
3573;SDS011;1801;51.050;6.246;2023-11-21T05:47:47;64.67;;;25.00;;
3573;SDS011;1801;51.050;6.246;2023-11-21T05:50:13;67.57;;;23.43;;
3573;SDS011;1801;51.050;6.246;2023-11-21T05:52:42;82.38;;;26.40;;
3573;SDS011;1801;51.050;6.246;2023-11-21T05:55:08;61.05;;;21.90;;
3573;SDS011;1801;51.050;6.246;2023-11-21T05:57:34;78.50;;;24.67;;
3573;SDS011;1801;51.050;6.246;2023-11-21T06:00:01;67.97;;;25.17;;
3573;SDS011;1801;51.050;6.246;2023-11-21T06:02:35;89.43;;;24.88;;
3573;SDS011;1801;51.050;6.246;2023-11-21T06:05:00;70.73;;;22.07;;
3573;SDS011;1801;51.050;6.246;2023-11-21T06:07:25;76.60;;;20.90;;
3573;SDS011;1801;51.050;6.246;2023-11-21T06:09:50;89.93;;;23.20;;
3573;SDS011;1801;51.050;6.246;2023-11-21T06:12:16;103.27;;;27.30;;
3573;SDS011;1801;51.050;6.246;2023-11-21T06:14:41;94.77;;;25.30;;
3573;SDS011;1801;51.050;6.246;2023-11-21T06:17:06;84.20;;;25.90;;
3573;SDS011;1801;51.050;6.246;2023-11-21T06:19:31;101.23;;;28.23;;
3573;SDS011;1801;51.050;6.246;2023-11-21T06:21:56;107.50;;;25.70;;
3573;SDS011;1801;51.050;6.246;2023-11-21T06:24:22;90.27;;;24.73;;
3573;SDS011;1801;51.050;6.246;2023-11-21T06:26:47;84.03;;;24.70;;
3573;SDS011;1801;51.050;6.246;2023-11-21T06:29:13;118.10;;;26.57;;
3573;SDS011;1801;51.050;6.246;2023-11-21T06:31:38;101.80;;;26.27;;
3573;SDS011;1801;51.050;6.246;2023-11-21T06:34:05;102.25;;;24.65;;
3573;SDS011;1801;51.050;6.246;2023-11-21T06:36:31;105.83;;;28.33;;
3573;SDS011;1801;51.050;6.246;2023-11-21T06:38:56;111.07;;;29.30;;
3573;SDS011;1801;51.050;6.246;2023-11-21T06:41:21;134.50;;;30.30;;
3573;SDS011;1801;51.050;6.246;2023-11-21T06:43:47;102.40;;;26.20;;
3573;SDS011;1801;51.050;6.246;2023-11-21T06:46:13;116.70;;;28.80;;
3573;SDS011;1801;51.050;6.246;2023-11-21T06:48:44;116.05;;;29.83;;
3573;SDS011;1801;51.050;6.246;2023-11-21T06:51:10;110.55;;;26.08;;
3573;SDS011;1801;51.050;6.246;2023-11-21T06:53:36;126.37;;;30.47;;
3573;SDS011;1801;51.050;6.246;2023-11-21T06:56:01;124.15;;;26.38;;
3573;SDS011;1801;51.050;6.246;2023-11-21T06:58:26;120.93;;;26.50;;
3573;SDS011;1801;51.050;6.246;2023-11-21T07:00:52;150.13;;;30.43;;
3573;SDS011;1801;51.050;6.246;2023-11-21T07:03:17;157.37;;;29.37;;
3573;SDS011;1801;51.050;6.246;2023-11-21T07:05:44;128.40;;;31.20;;
3573;SDS011;1801;51.050;6.246;2023-11-21T07:08:09;109.00;;;27.63;;
3573;SDS011;1801;51.050;6.246;2023-11-21T07:10:35;117.90;;;28.17;;
3573;SDS011;1801;51.050;6.246;2023-11-21T07:13:02;112.30;;;27.17;;
3573;SDS011;1801;51.050;6.246;2023-11-21T07:15:28;87.97;;;23.87;;
3573;SDS011;1801;51.050;6.246;2023-11-21T07:17:53;103.07;;;24.53;;
3573;SDS011;1801;51.050;6.246;2023-11-21T07:20:19;112.67;;;24.80;;
3573;SDS011;1801;51.050;6.246;2023-11-21T07:22:44;119.97;;;24.60;;
3573;SDS011;1801;51.050;6.246;2023-11-21T07:25:10;96.23;;;26.23;;
3573;SDS011;1801;51.050;6.246;2023-11-21T07:27:35;117.90;;;23.70;;
3573;SDS011;1801;51.050;6.246;2023-11-21T07:30:01;99.20;;;25.67;;
3573;SDS011;1801;51.050;6.246;2023-11-21T07:32:29;120.15;;;25.80;;
3573;SDS011;1801;51.050;6.246;2023-11-21T07:34:54;123.03;;;23.70;;
3573;SDS011;1801;51.050;6.246;2023-11-21T07:37:22;107.32;;;24.08;;
3573;SDS011;1801;51.050;6.246;2023-11-21T07:39:47;108.50;;;22.83;;
3573;SDS011;1801;51.050;6.246;2023-11-21T07:42:12;133.27;;;24.70;;
3573;SDS011;1801;51.050;6.246;2023-11-21T07:44:37;107.13;;;21.80;;
3573;SDS011;1801;51.050;6.246;2023-11-21T07:47:03;103.93;;;22.47;;
3573;SDS011;1801;51.050;6.246;2023-11-21T07:49:29;121.85;;;23.45;;
3573;SDS011;1801;51.050;6.246;2023-11-21T07:51:54;126.17;;;22.57;;
3573;SDS011;1801;51.050;6.246;2023-11-21T07:54:20;134.30;;;25.57;;
3573;SDS011;1801;51.050;6.246;2023-11-21T07:56:46;153.95;;;24.45;;
3573;SDS011;1801;51.050;6.246;2023-11-21T07:59:11;115.90;;;27.67;;
3573;SDS011;1801;51.050;6.246;2023-11-21T08:01:37;126.33;;;25.93;;
3573;SDS011;1801;51.050;6.246;2023-11-21T08:04:02;125.97;;;23.57;;
3573;SDS011;1801;51.050;6.246;2023-11-21T08:06:29;113.83;;;22.60;;
3573;SDS011;1801;51.050;6.246;2023-11-21T08:08:54;95.77;;;20.30;;
3573;SDS011;1801;51.050;6.246;2023-11-21T08:11:19;130.03;;;24.47;;
3573;SDS011;1801;51.050;6.246;2023-11-21T08:13:46;123.80;;;24.00;;
3573;SDS011;1801;51.050;6.246;2023-11-21T08:16:11;140.33;;;28.50;;
3573;SDS011;1801;51.050;6.246;2023-11-21T08:18:37;142.27;;;27.17;;
3573;SDS011;1801;51.050;6.246;2023-11-21T08:21:02;146.50;;;29.80;;
3573;SDS011;1801;51.050;6.246;2023-11-21T08:23:28;122.63;;;24.97;;
3573;SDS011;1801;51.050;6.246;2023-11-21T08:25:54;160.38;;;28.70;;
3573;SDS011;1801;51.050;6.246;2023-11-21T08:28:20;127.33;;;29.07;;
3573;SDS011;1801;51.050;6.246;2023-11-21T08:30:48;120.90;;;23.27;;
3573;SDS011;1801;51.050;6.246;2023-11-21T08:33:13;155.03;;;25.07;;
3573;SDS011;1801;51.050;6.246;2023-11-21T08:35:38;147.57;;;27.80;;
3573;SDS011;1801;51.050;6.246;2023-11-21T08:38:04;153.83;;;27.30;;
3573;SDS011;1801;51.050;6.246;2023-11-21T08:40:29;135.37;;;26.47;;
3573;SDS011;1801;51.050;6.246;2023-11-21T08:42:55;129.83;;;28.50;;
3573;SDS011;1801;51.050;6.246;2023-11-21T08:45:23;152.63;;;30.30;;
3573;SDS011;1801;51.050;6.246;2023-11-21T08:47:50;134.25;;;25.83;;
3573;SDS011;1801;51.050;6.246;2023-11-21T08:50:15;130.83;;;27.27;;
3573;SDS011;1801;51.050;6.246;2023-11-21T08:52:41;140.33;;;26.40;;
3573;SDS011;1801;51.050;6.246;2023-11-21T08:55:07;111.80;;;24.63;;
3573;SDS011;1801;51.050;6.246;2023-11-21T08:57:36;149.33;;;26.50;;
3573;SDS011;1801;51.050;6.246;2023-11-21T09:00:02;131.85;;;25.13;;
3573;SDS011;1801;51.050;6.246;2023-11-21T09:02:27;146.25;;;26.85;;
3573;SDS011;1801;51.050;6.246;2023-11-21T09:04:52;101.40;;;21.97;;
3573;SDS011;1801;51.050;6.246;2023-11-21T09:07:18;104.80;;;27.27;;
3573;SDS011;1801;51.050;6.246;2023-11-21T09:09:45;103.35;;;24.35;;
3573;SDS011;1801;51.050;6.246;2023-11-21T09:12:10;107.90;;;23.23;;
3573;SDS011;1801;51.050;6.246;2023-11-21T09:14:37;109.50;;;23.50;;
3573;SDS011;1801;51.050;6.246;2023-11-21T09:17:02;90.23;;;20.93;;
3573;SDS011;1801;51.050;6.246;2023-11-21T09:19:28;92.03;;;21.23;;
3573;SDS011;1801;51.050;6.246;2023-11-21T09:21:53;122.43;;;22.93;;
3573;SDS011;1801;51.050;6.246;2023-11-21T09:24:19;104.07;;;25.25;;
3573;SDS011;1801;51.050;6.246;2023-11-21T09:26:44;110.97;;;23.77;;
3573;SDS011;1801;51.050;6.246;2023-11-21T09:29:10;102.50;;;21.70;;
3573;SDS011;1801;51.050;6.246;2023-11-21T09:31:35;89.57;;;21.47;;
3573;SDS011;1801;51.050;6.246;2023-11-21T09:34:00;85.63;;;22.57;;
3573;SDS011;1801;51.050;6.246;2023-11-21T09:36:27;93.77;;;24.40;;
3573;SDS011;1801;51.050;6.246;2023-11-21T09:38:54;89.43;;;21.20;;
3573;SDS011;1801;51.050;6.246;2023-11-21T09:41:26;102.47;;;23.37;;
3573;SDS011;1801;51.050;6.246;2023-11-21T09:43:52;96.90;;;27.67;;
3573;SDS011;1801;51.050;6.246;2023-11-21T09:46:20;86.03;;;25.08;;
3573;SDS011;1801;51.050;6.246;2023-11-21T09:48:48;84.77;;;23.77;;
3573;SDS011;1801;51.050;6.246;2023-11-21T09:51:15;89.70;;;22.20;;
3573;SDS011;1801;51.050;6.246;2023-11-21T09:53:41;75.10;;;22.80;;
3573;SDS011;1801;51.050;6.246;2023-11-21T09:56:08;76.67;;;20.83;;
3573;SDS011;1801;51.050;6.246;2023-11-21T09:58:35;84.75;;;23.70;;
3573;SDS011;1801;51.050;6.246;2023-11-21T10:01:00;80.80;;;22.50;;
3573;SDS011;1801;51.050;6.246;2023-11-21T10:03:28;63.70;;;23.37;;
3573;SDS011;1801;51.050;6.246;2023-11-21T10:05:53;78.07;;;22.60;;
3573;SDS011;1801;51.050;6.246;2023-11-21T10:08:21;88.93;;;25.87;;
3573;SDS011;1801;51.050;6.246;2023-11-21T10:10:48;88.03;;;24.80;;
3573;SDS011;1801;51.050;6.246;2023-11-21T10:13:14;83.10;;;21.37;;
3573;SDS011;1801;51.050;6.246;2023-11-21T10:15:42;87.78;;;23.75;;
3573;SDS011;1801;51.050;6.246;2023-11-21T10:18:13;82.10;;;23.17;;
3573;SDS011;1801;51.050;6.246;2023-11-21T10:20:40;80.93;;;25.63;;
3573;SDS011;1801;51.050;6.246;2023-11-21T10:23:05;71.20;;;24.70;;
3573;SDS011;1801;51.050;6.246;2023-11-21T10:25:32;92.37;;;24.80;;
3573;SDS011;1801;51.050;6.246;2023-11-21T10:27:58;69.07;;;20.80;;
3573;SDS011;1801;51.050;6.246;2023-11-21T10:30:35;69.90;;;20.03;;
3573;SDS011;1801;51.050;6.246;2023-11-21T10:33:03;75.53;;;21.60;;
3573;SDS011;1801;51.050;6.246;2023-11-21T10:35:38;74.47;;;21.53;;
3573;SDS011;1801;51.050;6.246;2023-11-21T10:38:04;73.97;;;20.93;;
3573;SDS011;1801;51.050;6.246;2023-11-21T10:40:29;65.23;;;20.33;;
3573;SDS011;1801;51.050;6.246;2023-11-21T10:42:54;73.67;;;21.67;;
3573;SDS011;1801;51.050;6.246;2023-11-21T10:45:23;84.23;;;21.20;;
3573;SDS011;1801;51.050;6.246;2023-11-21T10:47:48;63.00;;;21.20;;
3573;SDS011;1801;51.050;6.246;2023-11-21T10:50:16;78.63;;;21.97;;
3573;SDS011;1801;51.050;6.246;2023-11-21T10:52:44;79.90;;;22.17;;
3573;SDS011;1801;51.050;6.246;2023-11-21T10:55:18;75.07;;;20.80;;
3573;SDS011;1801;51.050;6.246;2023-11-21T10:57:49;74.53;;;21.90;;
3573;SDS011;1801;51.050;6.246;2023-11-21T11:00:16;66.13;;;23.70;;
3573;SDS011;1801;51.050;6.246;2023-11-21T11:02:44;74.50;;;22.80;;
3573;SDS011;1801;51.050;6.246;2023-11-21T11:05:09;80.53;;;21.07;;
3573;SDS011;1801;51.050;6.246;2023-11-21T11:07:36;58.57;;;18.70;;
3573;SDS011;1801;51.050;6.246;2023-11-21T11:10:03;64.17;;;20.20;;
3573;SDS011;1801;51.050;6.246;2023-11-21T11:12:29;57.30;;;20.23;;
3573;SDS011;1801;51.050;6.246;2023-11-21T11:14:54;64.50;;;22.60;;
3573;SDS011;1801;51.050;6.246;2023-11-21T11:17:20;63.57;;;20.67;;
3573;SDS011;1801;51.050;6.246;2023-11-21T11:19:46;70.57;;;22.17;;
3573;SDS011;1801;51.050;6.246;2023-11-21T11:25:02;73.47;;;20.93;;
3573;SDS011;1801;51.050;6.246;2023-11-21T11:37:49;64.10;;;21.80;;
3573;SDS011;1801;51.050;6.246;2023-11-21T11:40:14;72.63;;;21.73;;
3573;SDS011;1801;51.050;6.246;2023-11-21T11:42:54;54.87;;;19.27;;
3573;SDS011;1801;51.050;6.246;2023-11-21T11:45:19;55.67;;;18.70;;
3573;SDS011;1801;51.050;6.246;2023-11-21T11:47:45;45.33;;;17.07;;
3573;SDS011;1801;51.050;6.246;2023-11-21T11:50:13;40.70;;;14.97;;
3573;SDS011;1801;51.050;6.246;2023-11-21T11:52:48;50.13;;;17.83;;
3573;SDS011;1801;51.050;6.246;2023-11-21T11:55:16;46.90;;;16.87;;
3573;SDS011;1801;51.050;6.246;2023-11-21T11:57:51;41.47;;;16.90;;
3573;SDS011;1801;51.050;6.246;2023-11-21T12:00:20;44.80;;;16.57;;
3573;SDS011;1801;51.050;6.246;2023-11-21T12:02:53;40.53;;;14.17;;
3573;SDS011;1801;51.050;6.246;2023-11-21T12:05:19;47.13;;;15.10;;
3573;SDS011;1801;51.050;6.246;2023-11-21T12:10:11;41.03;;;15.33;;
3573;SDS011;1801;51.050;6.246;2023-11-21T12:12:36;56.07;;;17.90;;
3573;SDS011;1801;51.050;6.246;2023-11-21T12:15:03;37.27;;;15.87;;
3573;SDS011;1801;51.050;6.246;2023-11-21T12:17:30;42.67;;;15.53;;
3573;SDS011;1801;51.050;6.246;2023-11-21T12:20:01;41.97;;;16.80;;
3573;SDS011;1801;51.050;6.246;2023-11-21T12:22:27;43.50;;;16.47;;
3573;SDS011;1801;51.050;6.246;2023-11-21T12:24:52;31.63;;;11.73;;
3573;SDS011;1801;51.050;6.246;2023-11-21T12:27:17;33.40;;;12.20;;
3573;SDS011;1801;51.050;6.246;2023-11-21T12:29:43;37.07;;;13.70;;
3573;SDS011;1801;51.050;6.246;2023-11-21T12:32:08;43.80;;;15.40;;
3573;SDS011;1801;51.050;6.246;2023-11-21T12:34:34;36.07;;;16.37;;
3573;SDS011;1801;51.050;6.246;2023-11-21T12:36:59;45.70;;;18.07;;
3573;SDS011;1801;51.050;6.246;2023-11-21T12:39:24;50.87;;;17.30;;
3573;SDS011;1801;51.050;6.246;2023-11-21T12:41:50;43.83;;;13.60;;
3573;SDS011;1801;51.050;6.246;2023-11-21T12:44:16;52.83;;;16.97;;
3573;SDS011;1801;51.050;6.246;2023-11-21T12:46:44;32.90;;;13.23;;
3573;SDS011;1801;51.050;6.246;2023-11-21T12:49:10;34.43;;;12.10;;
3573;SDS011;1801;51.050;6.246;2023-11-21T12:51:42;38.47;;;14.13;;
3573;SDS011;1801;51.050;6.246;2023-11-21T12:54:07;33.00;;;14.40;;
3573;SDS011;1801;51.050;6.246;2023-11-21T12:56:37;42.30;;;13.70;;
3573;SDS011;1801;51.050;6.246;2023-11-21T12:59:03;47.07;;;14.90;;
3573;SDS011;1801;51.050;6.246;2023-11-21T13:01:29;35.10;;;12.43;;
3573;SDS011;1801;51.050;6.246;2023-11-21T13:03:57;44.07;;;15.50;;
3573;SDS011;1801;51.050;6.246;2023-11-21T13:06:22;45.33;;;15.20;;
3573;SDS011;1801;51.050;6.246;2023-11-21T13:08:50;31.47;;;12.77;;
3573;SDS011;1801;51.050;6.246;2023-11-21T13:11:15;33.53;;;12.47;;
3573;SDS011;1801;51.050;6.246;2023-11-21T13:13:42;51.10;;;14.10;;
3573;SDS011;1801;51.050;6.246;2023-11-21T13:16:08;43.97;;;12.90;;
3573;SDS011;1801;51.050;6.246;2023-11-21T13:18:34;47.90;;;14.10;;
3573;SDS011;1801;51.050;6.246;2023-11-21T13:21:02;48.07;;;13.80;;
3573;SDS011;1801;51.050;6.246;2023-11-21T13:23:38;50.37;;;14.47;;
3573;SDS011;1801;51.050;6.246;2023-11-21T13:26:05;43.03;;;14.70;;
3573;SDS011;1801;51.050;6.246;2023-11-21T13:28:31;49.83;;;15.70;;
3573;SDS011;1801;51.050;6.246;2023-11-21T13:30:58;40.90;;;14.63;;
3573;SDS011;1801;51.050;6.246;2023-11-21T13:33:27;40.20;;;12.93;;
3573;SDS011;1801;51.050;6.246;2023-11-21T13:35:53;46.90;;;14.70;;
3573;SDS011;1801;51.050;6.246;2023-11-21T13:38:20;53.87;;;15.80;;
3573;SDS011;1801;51.050;6.246;2023-11-21T13:40:49;52.83;;;19.87;;
3573;SDS011;1801;51.050;6.246;2023-11-21T13:43:17;39.73;;;14.37;;
3573;SDS011;1801;51.050;6.246;2023-11-21T13:45:47;37.73;;;13.60;;
3573;SDS011;1801;51.050;6.246;2023-11-21T13:48:13;42.93;;;15.13;;
3573;SDS011;1801;51.050;6.246;2023-11-21T13:50:45;34.07;;;14.47;;
3573;SDS011;1801;51.050;6.246;2023-11-21T13:53:24;42.70;;;14.80;;
3573;SDS011;1801;51.050;6.246;2023-11-21T13:55:49;38.80;;;15.40;;
3573;SDS011;1801;51.050;6.246;2023-11-21T13:58:15;58.73;;;17.67;;
3573;SDS011;1801;51.050;6.246;2023-11-21T14:00:44;42.13;;;13.77;;
3573;SDS011;1801;51.050;6.246;2023-11-21T14:03:14;38.10;;;14.53;;
3573;SDS011;1801;51.050;6.246;2023-11-21T14:06:04;42.73;;;14.70;;
3573;SDS011;1801;51.050;6.246;2023-11-21T14:08:39;59.30;;;15.73;;
3573;SDS011;1801;51.050;6.246;2023-11-21T14:11:05;38.20;;;14.80;;
3573;SDS011;1801;51.050;6.246;2023-11-21T14:13:31;43.30;;;16.57;;
3573;SDS011;1801;51.050;6.246;2023-11-21T14:15:57;47.87;;;15.90;;
3573;SDS011;1801;51.050;6.246;2023-11-21T14:18:24;42.53;;;14.00;;
3573;SDS011;1801;51.050;6.246;2023-11-21T14:21:03;44.53;;;16.80;;
3573;SDS011;1801;51.050;6.246;2023-11-21T14:23:28;36.17;;;14.10;;
3573;SDS011;1801;51.050;6.246;2023-11-21T14:25:54;37.30;;;12.97;;
3573;SDS011;1801;51.050;6.246;2023-11-21T14:28:20;30.73;;;12.07;;
3573;SDS011;1801;51.050;6.246;2023-11-21T14:30:46;42.50;;;13.73;;
3573;SDS011;1801;51.050;6.246;2023-11-21T14:33:11;36.50;;;14.07;;
3573;SDS011;1801;51.050;6.246;2023-11-21T14:35:36;47.43;;;14.90;;
3573;SDS011;1801;51.050;6.246;2023-11-21T14:38:02;36.20;;;12.73;;
3573;SDS011;1801;51.050;6.246;2023-11-21T14:40:29;30.93;;;10.37;;
3573;SDS011;1801;51.050;6.246;2023-11-21T14:43:00;28.83;;;11.80;;
3573;SDS011;1801;51.050;6.246;2023-11-21T14:45:25;27.50;;;11.20;;
3573;SDS011;1801;51.050;6.246;2023-11-21T14:47:51;28.63;;;11.87;;
3573;SDS011;1801;51.050;6.246;2023-11-21T14:50:40;37.03;;;12.80;;
3573;SDS011;1801;51.050;6.246;2023-11-21T14:53:24;31.53;;;11.37;;